EDT,Max TemperatureF,Mean TemperatureF,Min TemperatureF,Max Dew PointF,MeanDew PointF,Min DewpointF,Max Humidity, Mean Humidity, Min Humidity, Max Sea Level PressureIn, Mean Sea Level PressureIn, Min Sea Level PressureIn, Max VisibilityMiles, Mean VisibilityMiles, Min VisibilityMiles, Max Wind SpeedMPH, Mean Wind SpeedMPH, Max Gust SpeedMPH,PrecipitationIn, CloudCover, Events, WindDirDegrees
2014-8-1,91,84,77,77,75,73,94,77,59,29.99,29.96,29.93,10,10,10,17,8,24,0.00,5,,139
2014-8-2,91,85,78,77,75,74,97,77,56,29.97,29.93,29.89,10,10,10,15,7,18,0.01,5,,66
2014-8-3,89,82,74,79,75,71,93,81,68,29.96,29.90,29.87,10,9,1,17,7,22,1.54,6,Rain-Thunderstorm,171
2014-8-4,88,82,75,75,74,72,94,79,63,30.02,29.95,29.88,10,8,0,18,7,22,1.07,7,Fog-Rain-Thunderstorm,219
2014-8-5,92,84,76,76,74,73,94,75,56,30.09,30.04,29.97,10,9,0,33,7,39,0.69,6,Fog-Rain-Thunderstorm,237
2014-8-6,91,84,76,77,75,73,94,77,59,30.07,30.03,29.99,10,10,10,14,6,19,0.11,4,Rain,198
2014-8-7,92,84,75,77,74,70,91,72,52,30.03,30.00,29.94,10,9,0,28,8,37,1.13,5,Fog-Rain-Thunderstorm,197
2014-8-8,92,84,76,76,75,71,94,77,60,30.06,30.02,29.98,10,10,10,18,6,22,0.00,6,Thunderstorm,161
2014-8-9,93,86,79,77,75,72,85,69,52,30.08,30.04,30.01,10,10,5,16,5,22,0.29,6,Rain-Thunderstorm,226
2014-8-10,93,85,76,76,74,70,91,69,46,30.08,30.04,29.99,10,10,3,16,6,22,0.15,5,Rain-Thunderstorm,185
2014-8-11,93,85,76,76,72,67,94,73,52,30.07,30.02,29.98,10,10,10,17,6,24,0.00,4,Thunderstorm,211
2014-8-12,91,84,77,76,73,69,91,70,49,30.04,30.01,29.98,10,10,5,28,7,33,0.46,5,Rain-Thunderstorm,189
2014-8-13,91,83,74,76,75,70,94,77,59,30.04,30.01,29.97,10,9,1,33,6,41,0.56,3,Rain-Thunderstorm,185
2014-8-14,92,85,77,78,76,74,94,77,60,30.05,30.01,29.98,10,10,2,18,5,23,0.31,4,Rain-Thunderstorm,169
2014-8-15,92,83,74,77,75,71,94,79,64,30.08,30.03,29.97,10,8,2,22,6,27,0.68,6,Rain-Thunderstorm,220
2014-8-16,93,83,73,78,74,68,94,75,56,30.14,30.08,30.01,10,8,0,37,5,50,2.37,6,Fog-Rain-Thunderstorm,131
2014-8-17,90,83,75,78,75,72,100,82,64,30.12,30.08,30.05,10,10,10,16,4,20,T,4,Thunderstorm,131
2014-8-18,91,84,76,77,75,74,91,74,56,30.08,30.03,29.98,10,10,10,15,5,18,0.00,2,,136
2014-8-19,92,85,78,78,75,71,94,73,52,30.04,30.00,29.96,10,10,10,14,6,17,0.00,3,,159
2014-8-20,93,86,79,77,75,72,91,74,56,30.10,30.05,29.99,10,10,10,15,4,20,0.00,3,Thunderstorm,135
2014-8-21,92,85,78,78,75,74,91,75,59,30.12,30.09,30.05,10,10,10,15,6,19,0.00,4,Thunderstorm,117
2014-8-22,92,86,79,77,75,73,91,74,56,30.10,30.04,29.99,10,10,7,15,6,17,0.00,3,Rain-Thunderstorm,105
2014-8-23,93,86,78,77,75,72,91,72,52,29.98,29.93,29.86,10,10,7,15,7,18,0.00,2,,46
2014-8-24,94,86,78,77,74,67,91,66,41,29.87,29.81,29.75,10,10,10,15,6,20,0.00,2,,20
2014-8-25,91,85,79,79,76,70,91,76,60,29.80,29.76,29.73,10,10,10,26,14,31,0.05,5,Rain,14
2014-8-26,91,87,82,73,71,66,70,60,49,29.90,29.84,29.77,10,10,10,23,14,30,0.00,4,,43
2014-8-27,91,83,75,73,71,67,87,70,52,29.99,29.93,29.88,10,10,10,16,9,21,0.00,2,,50
2014-8-28,89,83,77,78,74,70,88,77,65,30.02,29.98,29.94,10,10,2,20,7,25,0.21,6,Rain-Thunderstorm,100
2014-8-29,91,84,77,79,76,72,91,78,64,30.11,30.04,29.99,10,10,3,21,6,26,0.07,5,Rain-Thunderstorm,110
2014-8-30,90,87,83,78,76,75,80,72,64,30.12,30.09,30.05,10,10,10,18,12,22,0.01,6,,110
2014-8-31,91,86,81,77,75,71,85,74,63,30.12,30.09,30.06,10,10,10,17,10,23,T,3,Rain,117